Aviation Digital Data Service (ADDS)

Output produced by METARs form (0520 UTC 25 May 2018)
found at http://www.aviationweather.gov/adds/metars/
 
TAF FLMF 241600Z 2418/2524 12010KT CAVOK 
     BECMG 2510/2512 09005KT 9999 SCT010 
     BECMG 2514/2516 10010KT CAVOK